Ashford, Alabama
Current Conditions -  °F | °C
As of 7:55 AM on Monday 22 Dec 2014 (Local Time) from KDHN Reporting Station
Haze Haze  
Wind Chill: 44°   Ceiling: 200
Heat Index: 48°   Visibility: 0.75mi
Dew Point: 48°   Wind: 9mph
Humidity: 100%   Direction: 30°NNE
Pressure: 30.01"   Gusts: NA
Location:  31.18°N, 85.24°W
Report Text: KDHN 221355Z 03008KT 3/4SM BR OVC002 09/09 A3001 RMK AO2
Loading
Personal Weather Stations






























Interactive Weather Map New forecast layout! Learn more

10-Day Weather Forecast

Advertisements
Track Severe Weather on mobile